Priwall — V2OX8 — position and weather

sailwx.info

Track history (hours):
 
Tides and Currents Weather Stations Pressure Air Temp Water Temp Dewpoint Dewpoint Depression Visibility Wind Speed Wind Dir Waves Ship Positions

Priwall

Last reported at 2016-Sep-24 16:26 UTC. Time now 2016-Sep-26 03:44 UTC.
Position N 42°15' E 005°30'.

Length 88 m; draft 5.7 m.

Type: Ship. MMSI: 304739000.

Date/timePositionNaut miles runAvg speedWind from/ knotsBaromVisibWave heightAir tempDewpointWater temp
2016-Sep-24 16:26N 42°15' E 005°30'16 8.6
2016-Sep-24 14:33N 42°24' E 005°48'180 9.5
2016-Sep-23 19:33N 44°24' E 008°52'0 0.0
2016-Sep-23 17:33N 44°24' E 008°52'0 0.0
2016-Sep-23 16:30N 44°24' E 008°52'0 0.0
2016-Sep-23 15:30N 44°24' E 008°52'0 0.0
2016-Sep-23 13:33N 44°24' E 008°52'0 0.0
2016-Sep-23 09:33N 44°24' E 008°52'0 0.0
2016-Sep-23 06:24N 44°24' E 008°52'0 0.0
2016-Sep-23 04:27N 44°24' E 008°52'0 0.0
2016-Sep-23 03:27N 44°24' E 008°52'0 0.0
2016-Sep-23 02:27N 44°24' E 008°52'0 0.0
2016-Sep-23 01:30N 44°24' E 008°52'0 0.0
2016-Sep-23 00:30N 44°24' E 008°52'0 0.0
2016-Sep-22 23:33N 44°24' E 008°52'0 0.0
2016-Sep-22 20:33N 44°24' E 008°52'0 0.0
2016-Sep-22 12:27N 44°24' E 008°52'0 0.0
2016-Sep-22 04:33N 44°24' E 008°52'0 0.0
2016-Sep-22 03:33N 44°24' E 008°52'0 0.0
2016-Sep-22 00:27N 44°24' E 008°52'0 0.0
2016-Sep-21 23:27N 44°24' E 008°52'0 0.0
2016-Sep-21 22:30N 44°24' E 008°52'0 0.0
2016-Sep-21 19:30N 44°24' E 008°52'0 0.0
2016-Sep-21 16:33N 44°24' E 008°52'0 0.0
2016-Sep-21 09:33N 44°24' E 008°52'0 0.0
2016-Sep-21 08:30N 44°24' E 008°52'0 0.0
2016-Sep-21 05:33N 44°24' E 008°52'0 0.0
2016-Sep-21 03:33N 44°24' E 008°52'0 0.0
2016-Sep-21 02:33N 44°24' E 008°52'0 0.0
2016-Sep-20 17:34N 44°24' E 008°52'16 5.3
2016-Sep-20 14:34N 44°11' E 009°03'9 9.3
2016-Sep-20 13:33N 44°02' E 009°08'28 9.5
2016-Sep-20 10:34N 43°35' E 009°19'19 9.6
2016-Sep-20 08:34N 43°17' E 009°28'  
Track history (hours):
 
Tides and Currents Weather Stations Pressure Air Temp Water Temp Dewpoint Dewpoint Depression Visibility Wind Speed Wind Dir Waves Ship Positions

Priwall

Last reported at 2016-Sep-24 16:26 UTC. Time now 2016-Sep-26 03:44 UTC.
Position N 42°15' E 005°30'.

Length 88 m; draft 5.7 m.

Type: Ship. MMSI: 304739000.

Date/timePositionNaut miles runAvg speedWind from/ knotsBaromVisibWave heightAir tempDewpointWater temp
2016-Sep-24 16:26N 42°15' E 005°30'16 8.6
2016-Sep-24 14:33N 42°24' E 005°48'180 9.5
2016-Sep-23 19:33N 44°24' E 008°52'0 0.0
2016-Sep-23 17:33N 44°24' E 008°52'0 0.0
2016-Sep-23 16:30N 44°24' E 008°52'0 0.0
2016-Sep-23 15:30N 44°24' E 008°52'0 0.0
2016-Sep-23 13:33N 44°24' E 008°52'0 0.0
2016-Sep-23 09:33N 44°24' E 008°52'0 0.0
2016-Sep-23 06:24N 44°24' E 008°52'0 0.0
2016-Sep-23 04:27N 44°24' E 008°52'0 0.0
2016-Sep-23 03:27N 44°24' E 008°52'0 0.0
2016-Sep-23 02:27N 44°24' E 008°52'0 0.0
2016-Sep-23 01:30N 44°24' E 008°52'0 0.0
2016-Sep-23 00:30N 44°24' E 008°52'0 0.0
2016-Sep-22 23:33N 44°24' E 008°52'0 0.0
2016-Sep-22 20:33N 44°24' E 008°52'0 0.0
2016-Sep-22 12:27N 44°24' E 008°52'0 0.0
2016-Sep-22 04:33N 44°24' E 008°52'0 0.0
2016-Sep-22 03:33N 44°24' E 008°52'0 0.0
2016-Sep-22 00:27N 44°24' E 008°52'0 0.0
2016-Sep-21 23:27N 44°24' E 008°52'0 0.0
2016-Sep-21 22:30N 44°24' E 008°52'0 0.0
2016-Sep-21 19:30N 44°24' E 008°52'0 0.0
2016-Sep-21 16:33N 44°24' E 008°52'0 0.0
2016-Sep-21 09:33N 44°24' E 008°52'0 0.0
2016-Sep-21 08:30N 44°24' E 008°52'0 0.0
2016-Sep-21 05:33N 44°24' E 008°52'0 0.0
2016-Sep-21 03:33N 44°24' E 008°52'0 0.0
2016-Sep-21 02:33N 44°24' E 008°52'0 0.0
2016-Sep-20 17:34N 44°24' E 008°52'16 5.3
2016-Sep-20 14:34N 44°11' E 009°03'9 9.3
2016-Sep-20 13:33N 44°02' E 009°08'28 9.5
2016-Sep-20 10:34N 43°35' E 009°19'19 9.6
2016-Sep-20 08:34N 43°17' E 009°28'  

Dump ship's entire track history